Pagrindinis puslapis
METAR-TAF:

METAR-TAF

Oro uostai :

Rioača, Kolumbija

platuma: 11-32N, ilguma: 072-56W, Aukštis: 4 m

Dabartinis oras

Ataskaita buvo paskelbta 22 minutes, ne 13:00 UTC
Vėjas 6 kt iš Rytų/Pietryčių
Temperatūra 27°C
Drėgmė 74%
Slėgis 1016 hPa
Matomumas 10 km arba daugiau
Mažai debesys ne aukštis 1500 ft

METAR: SKRH 281300Z 11006KT 9999 FEW015 27/22 A3000

Laikas: 08:22 (13:22 UTC)


TAF: trūkstamas

Orai ataskaitas ir orų prognozės (METAR, TAF).

turimą stotys yra geltonos ir raudonos taškus žemėlapyje.

Perkelti pele per norėdami pamatyti stoties vardą.

Tada spustelėkite, norėdami matyti oro stebėjimo ir prognozės.

Norėdami pakeisti žemėlapį: spustelėkite ant žalios mygtukų su juodo kryžiaus žemyn,; žalią mygtuką su brūkšneliu, jei norite nutolinti; arba žalių rodyklių gretimoms žemėlapius.


METAR-TAF: